createdAt,value
2022-12-13T00:01:23.616Z,-15.19
2022-12-13T00:03:56.449Z,-15.16
2022-12-13T00:06:22.899Z,-15.68
2022-12-13T00:08:49.630Z,-15.34
2022-12-13T00:11:16.656Z,-15.38
2022-12-13T00:13:43.795Z,-15.52
2022-12-13T00:16:12.726Z,-15.36
2022-12-13T00:18:39.795Z,-15.78
2022-12-13T00:21:08.394Z,-15.52
2022-12-13T00:23:35.506Z,-15.61
2022-12-13T00:26:15.287Z,-15.70
2022-12-13T00:28:42.191Z,-15.57
2022-12-13T00:31:51.596Z,-15.47
2022-12-13T00:33:56.023Z,-15.74
2022-12-13T00:36:22.495Z,-15.48
2022-12-13T00:39:00.230Z,-15.36
2022-12-13T00:41:30.170Z,-15.44
2022-12-13T00:43:57.113Z,-15.47
2022-12-13T00:46:23.936Z,-15.04
2022-12-13T00:48:52.578Z,-15.03
2022-12-13T00:51:20.063Z,-15.11
2022-12-13T00:53:47.008Z,-15.47
2022-12-13T00:56:16.827Z,-15.26
2022-12-13T00:58:48.648Z,-15.13
2022-12-13T01:01:21.090Z,-15.34
2022-12-13T01:03:47.743Z,-15.37
2022-12-13T01:06:16.750Z,-15.33
2022-12-13T01:08:44.418Z,-15.36
2022-12-13T01:11:10.917Z,-15.52
2022-12-13T01:13:38.174Z,-15.26
2022-12-13T01:16:06.735Z,-15.14
2022-12-13T01:18:33.577Z,-14.76
2022-12-13T01:21:34.234Z,-14.82
2022-12-13T01:24:05.394Z,-14.91
2022-12-13T01:26:32.571Z,-15.27
2022-12-13T01:28:59.355Z,-15.18
2022-12-13T01:31:26.474Z,-15.33
2022-12-13T01:33:52.915Z,-15.41
2022-12-13T01:36:27.128Z,-15.17
2022-12-13T01:38:58.288Z,-15.41
2022-12-13T01:41:27.335Z,-15.17
2022-12-13T01:44:05.456Z,-14.86
2022-12-13T01:46:34.359Z,-14.84
2022-12-13T01:49:20.387Z,-14.92
2022-12-13T01:51:59.744Z,-15.11
2022-12-13T01:54:33.749Z,-15.15
2022-12-13T01:57:06.378Z,-14.97
2022-12-13T01:59:36.799Z,-15.19
2022-12-13T02:02:04.891Z,-15.05
2022-12-13T02:04:44.097Z,-15.07
2022-12-13T02:07:14.165Z,-15.18
2022-12-13T02:09:56.366Z,-15.18
2022-12-13T02:12:29.349Z,-15.16
2022-12-13T02:15:00.547Z,-15.01
2022-12-13T02:17:55.213Z,-14.87
2022-12-13T02:20:30.976Z,-14.95
2022-12-13T02:23:18.775Z,-15.03
2022-12-13T02:26:02.692Z,-14.95
2022-12-13T02:28:44.206Z,-14.84
2022-12-13T02:31:15.613Z,-14.85
2022-12-13T02:34:12.526Z,-14.79
2022-12-13T02:36:57.263Z,-14.83
2022-12-13T02:39:31.137Z,-14.77
2022-12-13T02:42:02.818Z,-14.76
2022-12-13T02:44:32.392Z,-14.94
2022-12-13T02:47:05.432Z,-14.86
2022-12-13T02:49:46.898Z,-14.78
2022-12-13T02:52:22.507Z,-14.75
2022-12-13T02:54:49.267Z,-14.81
2022-12-13T02:57:29.986Z,-14.82
2022-12-13T02:59:59.196Z,-14.94
2022-12-13T03:02:42.351Z,-14.97
2022-12-13T03:05:45.905Z,-14.87
2022-12-13T03:08:15.052Z,-14.84
2022-12-13T03:10:49.815Z,-15.34
2022-12-13T03:13:37.853Z,-15.13
2022-12-13T03:16:25.477Z,-14.93
2022-12-13T03:18:55.086Z,-15.04
2022-12-13T03:21:22.029Z,-15.26
2022-12-13T03:23:48.589Z,-15.39
2022-12-13T03:26:20.303Z,-15.36
2022-12-13T03:28:57.094Z,-15.49
2022-12-13T03:31:23.559Z,-15.66
2022-12-13T03:33:50.059Z,-15.66
2022-12-13T03:36:18.865Z,-15.83
2022-12-13T03:38:47.802Z,-15.63
2022-12-13T03:41:17.582Z,-15.52
2022-12-13T03:43:44.520Z,-15.40
2022-12-13T03:46:11.211Z,-15.98
2022-12-13T03:48:38.216Z,-15.43
2022-12-13T03:51:05.250Z,-15.25
2022-12-13T03:53:34.174Z,-15.56
2022-12-13T03:56:03.559Z,-15.24
2022-12-13T03:58:35.953Z,-15.21
2022-12-13T04:01:09.191Z,-15.23
2022-12-13T04:03:37.171Z,-15.40
2022-12-13T04:06:04.205Z,-15.68
2022-12-13T04:08:30.673Z,-15.71
2022-12-13T04:10:57.135Z,-15.47
2022-12-13T04:13:32.493Z,-15.50
2022-12-13T04:15:58.892Z,-15.36
2022-12-13T04:18:25.324Z,-15.36
2022-12-13T04:20:51.752Z,-15.54
2022-12-13T04:23:34.561Z,-15.50
2022-12-13T04:26:01.840Z,-15.59
2022-12-13T04:28:28.279Z,-15.66
2022-12-13T04:30:54.694Z,-15.64
2022-12-13T04:33:22.492Z,-15.71
2022-12-13T04:35:49.715Z,-15.59
2022-12-13T04:38:16.671Z,-15.62
2022-12-13T04:40:43.087Z,-15.91
2022-12-13T04:43:09.678Z,-15.80
2022-12-13T04:45:36.157Z,-15.57
2022-12-13T04:48:02.684Z,-15.37
2022-12-13T04:50:29.120Z,-15.77
2022-12-13T04:52:55.630Z,-15.45
2022-12-13T04:55:22.106Z,-15.14
2022-12-13T04:57:48.538Z,-15.07
2022-12-13T05:00:15.450Z,-14.97
2022-12-13T05:02:42.335Z,-15.39
2022-12-13T05:05:12.326Z,-15.17
2022-12-13T05:07:41.903Z,-15.12
2022-12-13T05:10:11.869Z,-14.80
2022-12-13T05:12:49.395Z,-14.86
2022-12-13T05:15:37.701Z,-14.77
2022-12-13T05:18:09.746Z,-15.09
2022-12-13T05:20:38.921Z,-14.94
2022-12-13T05:23:05.426Z,-15.05
2022-12-13T05:25:33.271Z,-14.72
2022-12-13T05:28:08.839Z,-14.72
2022-12-13T05:30:38.671Z,-14.68
2022-12-13T05:33:10.840Z,-14.30
2022-12-13T05:35:37.437Z,-14.23
2022-12-13T05:38:20.222Z,-14.26
2022-12-13T05:41:15.048Z,-14.14
2022-12-13T05:43:43.263Z,-14.16
2022-12-13T05:46:42.159Z,-14.12
2022-12-13T05:49:08.566Z,-14.50
2022-12-13T05:51:47.329Z,-14.53
2022-12-13T05:54:14.931Z,-14.67
2022-12-13T05:56:41.360Z,-14.60
2022-12-13T05:59:07.792Z,-15.18
2022-12-13T06:01:35.393Z,-15.14
2022-12-13T06:04:01.849Z,-14.97
2022-12-13T06:06:28.409Z,-14.81
2022-12-13T06:08:55.006Z,-14.99
2022-12-13T06:11:32.356Z,-15.04
2022-12-13T06:14:00.669Z,-15.06
2022-12-13T06:16:27.811Z,-15.32
2022-12-13T06:19:03.849Z,-15.35
2022-12-13T06:21:41.496Z,-15.40
2022-12-13T06:24:10.257Z,-15.43
2022-12-13T06:26:36.666Z,-15.22
2022-12-13T06:29:03.264Z,-15.22
2022-12-13T06:31:29.732Z,-15.16
2022-12-13T06:33:56.139Z,-15.27
2022-12-13T06:36:22.531Z,-15.32
2022-12-13T06:38:48.941Z,-15.25
2022-12-13T06:41:17.099Z,-14.85
2022-12-13T06:43:45.272Z,-15.12
2022-12-13T06:46:12.794Z,-15.19
2022-12-13T06:48:40.638Z,-15.17
2022-12-13T06:51:08.477Z,-15.05
2022-12-13T06:53:37.421Z,-14.89
2022-12-13T06:56:06.847Z,-14.89
2022-12-13T06:58:34.774Z,-15.00
2022-12-13T07:01:03.925Z,-15.18
2022-12-13T07:03:31.914Z,-15.19
2022-12-13T07:06:06.408Z,-15.22
2022-12-13T07:08:32.891Z,-15.09
2022-12-13T07:11:02.798Z,-15.09
2022-12-13T07:13:31.033Z,-15.19
2022-12-13T07:16:00.823Z,-15.06
2022-12-13T07:18:27.851Z,-14.88
2022-12-13T07:20:54.317Z,-15.12
2022-12-13T07:23:24.677Z,-15.09
2022-12-13T07:25:53.328Z,-14.51
2022-12-13T07:28:20.575Z,-14.26
2022-12-13T07:30:47.893Z,-14.02
2022-12-13T07:33:22.068Z,-14.15
2022-12-13T07:35:49.033Z,-13.80
2022-12-13T07:38:22.056Z,-13.65
2022-12-13T07:40:48.510Z,-13.71
2022-12-13T07:43:17.265Z,-13.40
2022-12-13T07:45:44.041Z,-13.09
2022-12-13T07:48:10.449Z,-12.98
2022-12-13T07:50:37.877Z,-12.95
2022-12-13T07:53:07.316Z,-12.43
2022-12-13T07:55:34.404Z,-12.57
2022-12-13T07:58:12.629Z,-12.23
2022-12-13T08:00:45.889Z,-12.47
2022-12-13T08:03:24.368Z,-12.18
2022-12-13T08:06:10.533Z,-12.08
2022-12-13T08:08:37.795Z,-12.17
2022-12-13T08:11:09.977Z,-11.88
2022-12-13T08:13:36.972Z,-11.85
2022-12-13T08:16:25.947Z,-11.68
2022-12-13T08:18:53.796Z,-11.90
2022-12-13T08:24:20.074Z,-11.53
2022-12-13T08:26:46.479Z,-11.35
2022-12-13T08:29:13.292Z,-10.96
2022-12-13T08:31:50.202Z,-11.14
2022-12-13T08:34:16.688Z,-10.93
2022-12-13T08:36:43.155Z,-10.84
2022-12-13T08:39:09.579Z,-10.86
2022-12-13T08:41:39.336Z,-10.85
2022-12-13T08:44:06.324Z,-10.52
2022-12-13T08:46:32.891Z,-10.63
2022-12-13T08:49:00.546Z,-10.63
2022-12-13T08:51:30.843Z,-10.61
2022-12-13T08:54:10.783Z,-10.37
2022-12-13T08:56:38.344Z,-10.25
2022-12-13T08:59:05.001Z,-9.85
2022-12-13T09:01:31.510Z,-9.90
2022-12-13T09:03:58.036Z,-9.77
2022-12-13T09:06:24.599Z,-9.50
2022-12-13T09:08:53.130Z,-9.55
2022-12-13T09:11:20.804Z,-9.23
2022-12-13T09:13:51.795Z,-8.69
2022-12-13T09:16:24.229Z,-8.85
2022-12-13T09:18:55.102Z,-9.05
2022-12-13T09:21:31.359Z,-9.14
2022-12-13T09:24:01.876Z,-8.59
2022-12-13T09:26:29.145Z,-9.08
2022-12-13T09:29:11.037Z,-9.05
2022-12-13T09:31:40.339Z,-8.96
2022-12-13T09:34:07.217Z,-9.31
2022-12-13T09:36:33.779Z,-9.44
2022-12-13T09:39:00.191Z,-9.73
2022-12-13T09:41:40.955Z,-9.27
2022-12-13T09:44:32.275Z,-9.31
2022-12-13T09:47:00.844Z,-8.91
2022-12-13T09:49:35.889Z,-8.64
2022-12-13T09:52:11.041Z,-8.79
2022-12-13T09:54:47.674Z,-8.15
2022-12-13T09:57:32.021Z,-8.02
2022-12-13T10:00:02.469Z,-7.67
2022-12-13T10:02:32.001Z,-7.29
2022-12-13T10:05:25.390Z,-7.16
2022-12-13T10:08:17.648Z,-7.64
2022-12-13T10:10:44.346Z,-7.32
2022-12-13T10:13:16.531Z,-7.40
2022-12-13T10:15:47.638Z,-7.33
2022-12-13T10:18:24.787Z,-7.02
2022-12-13T10:20:53.027Z,-6.81
2022-12-13T10:23:59.284Z,-6.86
2022-12-13T10:26:23.951Z,-6.39
2022-12-13T10:28:52.835Z,-6.27
2022-12-13T10:31:20.731Z,-6.63
2022-12-13T10:33:56.902Z,-6.47
2022-12-13T10:36:38.374Z,-6.38
2022-12-13T10:39:04.894Z,-6.76
2022-12-13T10:41:38.414Z,-6.13
2022-12-13T10:44:25.307Z,-6.07
2022-12-13T10:47:10.100Z,-6.04
2022-12-13T10:49:47.721Z,-6.41
2022-12-13T10:52:33.667Z,-6.92
2022-12-13T10:55:22.796Z,-6.62
2022-12-13T10:57:56.764Z,-6.13
2022-12-13T11:00:37.086Z,-6.19
2022-12-13T11:03:04.225Z,-5.45
2022-12-13T11:05:33.955Z,-5.74
2022-12-13T11:08:14.324Z,-5.96
2022-12-13T11:10:41.079Z,-6.11
2022-12-13T11:13:08.170Z,-5.69
2022-12-13T11:15:37.809Z,-5.94
2022-12-13T11:18:23.172Z,-6.09
2022-12-13T11:21:04.230Z,-6.12
2022-12-13T11:23:38.101Z,-5.96
2022-12-13T11:26:16.766Z,-6.30
2022-12-13T11:29:18.885Z,-6.02
2022-12-13T11:32:00.856Z,-6.31
2022-12-13T11:34:51.526Z,-6.12
2022-12-13T11:37:33.340Z,-6.02
2022-12-13T11:40:31.895Z,-5.44
2022-12-13T11:43:21.098Z,-5.41
2022-12-13T11:45:55.869Z,-5.42
2022-12-13T11:48:39.307Z,-5.45
2022-12-13T11:51:07.878Z,-4.91
2022-12-13T11:53:49.659Z,-4.95
2022-12-13T11:56:23.883Z,-5.17
2022-12-13T11:59:11.988Z,-5.32
2022-12-13T12:01:53.245Z,-5.48
2022-12-13T12:04:44.221Z,-5.45
2022-12-13T12:07:31.985Z,-5.33
2022-12-13T12:10:21.108Z,-5.19
2022-12-13T12:12:55.552Z,-5.36
2022-12-13T12:15:27.047Z,-5.05
2022-12-13T12:17:55.539Z,-5.10
2022-12-13T12:20:41.957Z,-4.94
2022-12-13T12:23:23.159Z,-4.89
2022-12-13T12:25:57.689Z,-5.03
2022-12-13T12:28:34.406Z,-5.35
2022-12-13T12:31:23.828Z,-5.15
2022-12-13T12:34:13.245Z,-4.92
2022-12-13T12:36:51.186Z,-4.98
2022-12-13T12:39:59.460Z,-4.90
2022-12-13T12:43:14.271Z,-4.86
2022-12-13T12:45:56.413Z,-4.97
2022-12-13T12:51:39.605Z,-5.09
2022-12-13T12:54:35.443Z,-4.71
2022-12-13T12:57:29.092Z,-4.73
2022-12-13T13:00:17.660Z,-4.90
2022-12-13T13:03:05.263Z,-4.55
2022-12-13T13:05:48.095Z,-4.50
2022-12-13T13:08:28.860Z,-4.88
2022-12-13T13:11:01.816Z,-4.93
2022-12-13T13:14:01.739Z,-4.66
2022-12-13T13:16:33.350Z,-5.06
2022-12-13T13:19:34.748Z,-5.13
2022-12-13T13:22:53.752Z,-5.18
2022-12-13T13:25:35.189Z,-5.09
2022-12-13T13:28:17.876Z,-5.04
2022-12-13T13:31:10.390Z,-4.74
2022-12-13T13:33:47.344Z,-5.24
2022-12-13T13:36:38.785Z,-4.74
2022-12-13T13:39:19.249Z,-4.92
2022-12-13T13:41:56.862Z,-5.01
2022-12-13T13:45:01.935Z,-5.02
2022-12-13T13:47:33.979Z,-5.08
2022-12-13T13:50:12.411Z,-4.95
2022-12-13T13:53:21.458Z,-5.00
2022-12-13T13:56:19.614Z,-5.00
2022-12-13T14:02:58.423Z,-5.27
2022-12-13T14:06:14.880Z,-4.79
2022-12-13T14:09:20.556Z,-4.86
2022-12-13T14:12:02.572Z,-4.87
2022-12-13T14:15:01.464Z,-4.91
2022-12-13T14:17:49.952Z,-5.00
2022-12-13T14:20:42.585Z,-4.99
2022-12-13T14:24:07.366Z,-5.01
2022-12-13T14:27:31.556Z,-4.83
2022-12-13T14:29:59.084Z,-4.94
2022-12-13T14:32:32.748Z,-4.88
2022-12-13T14:35:25.827Z,-4.83
2022-12-13T14:37:56.849Z,-4.88
2022-12-13T14:40:56.393Z,-4.90
2022-12-13T14:43:26.874Z,-4.93
2022-12-13T14:46:19.155Z,-4.95
2022-12-13T14:48:49.444Z,-5.08
2022-12-13T14:51:30.434Z,-5.31
2022-12-13T14:53:56.966Z,-5.29
2022-12-13T14:56:54.828Z,-5.22
2022-12-13T14:59:25.775Z,-5.34
2022-12-13T15:02:00.326Z,-5.37
2022-12-13T15:04:29.332Z,-5.31
2022-12-13T15:07:01.691Z,-5.19
2022-12-13T15:09:42.318Z,-5.23
2022-12-13T15:12:24.430Z,-5.23
2022-12-13T15:15:14.499Z,-5.20
2022-12-13T15:17:45.035Z,-5.24
2022-12-13T15:20:23.983Z,-4.91
2022-12-13T15:23:10.775Z,-5.42
2022-12-13T15:25:38.005Z,-5.27
2022-12-13T15:28:18.253Z,-5.17
2022-12-13T15:31:06.285Z,-5.41
2022-12-13T15:34:28.337Z,-5.50
2022-12-13T15:37:28.323Z,-5.61
2022-12-13T15:39:59.851Z,-5.59
2022-12-13T15:42:47.017Z,-5.57
2022-12-13T15:45:31.770Z,-5.80
2022-12-13T15:48:06.178Z,-5.70
2022-12-13T15:50:41.005Z,-5.83
2022-12-13T15:53:28.941Z,-5.79
2022-12-13T15:55:55.886Z,-5.85
2022-12-13T15:58:40.377Z,-5.96
2022-12-13T16:01:30.576Z,-5.71
2022-12-13T16:03:57.546Z,-5.86
2022-12-13T16:06:26.408Z,-5.64
2022-12-13T16:08:59.866Z,-5.95
2022-12-13T16:11:34.195Z,-5.80
2022-12-13T16:14:49.477Z,-5.71
2022-12-13T16:17:24.969Z,-5.68
2022-12-13T16:19:55.920Z,-5.68
2022-12-13T16:22:24.028Z,-5.88
2022-12-13T16:24:52.876Z,-5.75
2022-12-13T16:27:19.689Z,-5.70
2022-12-13T16:30:15.939Z,-5.44
2022-12-13T16:33:10.806Z,-5.79
2022-12-13T16:35:45.206Z,-5.59
2022-12-13T16:38:17.801Z,-5.93
2022-12-13T16:41:09.282Z,-5.61
2022-12-13T16:44:10.626Z,-5.55
2022-12-13T16:47:18.702Z,-5.64
2022-12-13T16:49:34.707Z,-5.61
2022-12-13T16:52:05.007Z,-5.57
2022-12-13T16:54:39.735Z,-5.49
2022-12-13T16:57:21.306Z,-5.50
2022-12-13T16:59:55.013Z,-5.76
2022-12-13T17:02:25.645Z,-5.59
2022-12-13T17:04:54.132Z,-5.52
2022-12-13T17:07:20.555Z,-5.74
2022-12-13T17:10:04.896Z,-5.33
2022-12-13T17:12:50.610Z,-5.38
2022-12-13T17:15:17.186Z,-5.44
2022-12-13T17:17:45.178Z,-5.44
2022-12-13T17:20:47.036Z,-5.36
2022-12-13T17:23:36.014Z,-5.55
2022-12-13T17:26:06.914Z,-5.60
2022-12-13T17:28:34.262Z,-5.42
2022-12-13T17:31:09.744Z,-5.26
2022-12-13T17:33:50.518Z,-5.46
2022-12-13T17:36:38.748Z,-5.25
2022-12-13T17:39:12.059Z,-5.55
2022-12-13T17:41:54.787Z,-5.35
2022-12-13T17:44:23.376Z,-5.47
2022-12-13T17:46:55.092Z,-5.53
2022-12-13T17:49:22.261Z,-5.60
2022-12-13T17:51:51.411Z,-5.31
2022-12-13T17:54:18.664Z,-5.32
2022-12-13T17:56:45.117Z,-5.55
2022-12-13T17:59:13.301Z,-5.29
2022-12-13T18:01:39.776Z,-5.40
2022-12-13T18:04:06.245Z,-6.14
2022-12-13T18:06:39.519Z,-5.20
2022-12-13T18:09:08.131Z,-5.24
2022-12-13T18:11:43.135Z,-5.45
2022-12-13T18:14:41.743Z,-5.28
2022-12-13T18:17:08.203Z,-5.58
2022-12-13T18:19:34.642Z,-5.50
2022-12-13T18:22:10.403Z,-5.45
2022-12-13T18:24:36.992Z,-5.48
2022-12-13T18:27:03.648Z,-5.49
2022-12-13T18:29:36.405Z,-5.43
2022-12-13T18:32:03.643Z,-5.58
2022-12-13T18:35:04.468Z,-5.14
2022-12-13T18:37:30.875Z,-5.27
2022-12-13T18:39:57.270Z,-5.34
2022-12-13T18:42:23.678Z,-5.22
2022-12-13T18:44:54.189Z,-5.30
2022-12-13T18:47:21.363Z,-5.27
2022-12-13T18:49:55.096Z,-5.35
2022-12-13T18:52:37.300Z,-5.40
2022-12-13T18:55:04.073Z,-5.15
2022-12-13T18:57:37.479Z,-5.39
2022-12-13T19:00:05.174Z,-5.55
2022-12-13T19:02:45.099Z,-5.30
2022-12-13T19:05:14.904Z,-5.54
2022-12-13T19:07:48.468Z,-5.33
2022-12-13T19:10:16.089Z,-5.44
2022-12-13T19:13:14.641Z,-5.04
2022-12-13T19:15:44.927Z,-5.13
2022-12-13T19:18:14.930Z,-5.18
2022-12-13T19:20:46.842Z,-5.09
2022-12-13T19:23:13.311Z,-5.27
2022-12-13T19:25:52.809Z,-5.19
2022-12-13T19:28:44.497Z,-5.10
2022-12-13T19:31:15.611Z,-5.10
2022-12-13T19:33:42.740Z,-5.04
2022-12-13T19:36:11.341Z,-5.06
2022-12-13T19:38:38.518Z,-5.35
2022-12-13T19:41:17.212Z,-5.16
2022-12-13T19:43:50.621Z,-5.13
2022-12-13T19:46:18.921Z,-5.07
2022-12-13T19:49:01.558Z,-5.35
2022-12-13T19:51:39.803Z,-5.20
2022-12-13T19:54:13.799Z,-5.16
2022-12-13T19:56:47.442Z,-5.07
2022-12-13T19:59:20.117Z,-5.04
2022-12-13T20:01:57.218Z,-5.10
2022-12-13T20:04:25.934Z,-5.13
2022-12-13T20:07:18.415Z,-4.94
2022-12-13T20:09:44.825Z,-5.02
2022-12-13T20:12:11.284Z,-5.05
2022-12-13T20:14:37.885Z,-5.09
2022-12-13T20:17:16.733Z,-5.08
2022-12-13T20:19:43.270Z,-4.94
2022-12-13T20:22:26.682Z,-4.97
2022-12-13T20:24:54.400Z,-5.08
2022-12-13T20:27:26.069Z,-4.99
2022-12-13T20:29:53.465Z,-4.98
2022-12-13T20:32:21.002Z,-5.15
2022-12-13T20:34:54.531Z,-5.16
2022-12-13T20:37:21.789Z,-4.94
2022-12-13T20:39:48.295Z,-5.09
2022-12-13T20:42:20.862Z,-5.13
2022-12-13T20:45:04.008Z,-4.98
2022-12-13T20:47:33.907Z,-5.13
2022-12-13T20:50:07.792Z,-5.11
2022-12-13T20:52:34.189Z,-5.16
2022-12-13T20:55:00.731Z,-5.35
2022-12-13T20:57:34.205Z,-5.19
2022-12-13T21:00:00.759Z,-5.25
2022-12-13T21:02:37.768Z,-5.17
2022-12-13T21:05:05.611Z,-5.46
2022-12-13T21:08:06.850Z,-5.33
2022-12-13T21:10:33.252Z,-5.37
2022-12-13T21:12:59.659Z,-5.28
2022-12-13T21:15:26.063Z,-5.35
2022-12-13T21:17:52.458Z,-5.27
2022-12-13T21:20:23.147Z,-4.95
2022-12-13T21:22:49.575Z,-4.91
2022-12-13T21:25:16.013Z,-4.99
2022-12-13T21:27:51.570Z,-5.30
2022-12-13T21:31:11.648Z,-4.68
2022-12-13T21:33:39.385Z,-4.99
2022-12-13T21:36:16.419Z,-4.79
2022-12-13T21:38:44.028Z,-4.91
2022-12-13T21:41:11.395Z,-4.94
2022-12-13T21:43:58.707Z,-4.60
2022-12-13T21:46:47.847Z,-4.57
2022-12-13T21:49:16.165Z,-4.64
2022-12-13T21:51:47.572Z,-4.51
2022-12-13T21:54:14.816Z,-4.52
2022-12-13T21:56:59.659Z,-4.49
2022-12-13T21:59:28.605Z,-4.47
2022-12-13T22:02:11.739Z,-4.53
2022-12-13T22:04:53.103Z,-4.25
2022-12-13T22:07:22.529Z,-4.28
2022-12-13T22:09:52.458Z,-4.33
2022-12-13T22:12:26.365Z,-4.34
2022-12-13T22:14:53.602Z,-4.24
2022-12-13T22:17:24.939Z,-4.31
2022-12-13T22:20:02.082Z,-4.44
2022-12-13T22:22:28.725Z,-4.45
2022-12-13T22:24:55.233Z,-4.32
2022-12-13T22:27:25.568Z,-4.31
2022-12-13T22:29:59.686Z,-4.23
2022-12-13T22:32:28.612Z,-4.19
2022-12-13T22:34:55.166Z,-4.31
2022-12-13T22:37:22.164Z,-4.28
2022-12-13T22:39:48.567Z,-4.38
2022-12-13T22:42:20.329Z,-4.52
2022-12-13T22:44:46.883Z,-4.59
2022-12-13T22:47:13.309Z,-4.39
2022-12-13T22:49:40.161Z,-4.53
2022-12-13T22:52:06.935Z,-4.55
2022-12-13T22:54:33.332Z,-4.47
2022-12-13T22:56:59.731Z,-4.70
2022-12-13T22:59:26.153Z,-4.52
2022-12-13T23:02:05.054Z,-4.71
2022-12-13T23:04:31.988Z,-4.69
2022-12-13T23:06:58.744Z,-4.43
2022-12-13T23:09:25.137Z,-4.48
2022-12-13T23:12:10.159Z,-4.44
2022-12-13T23:14:36.592Z,-4.48
2022-12-13T23:17:04.374Z,-4.37
2022-12-13T23:19:49.803Z,-4.55
2022-12-13T23:22:21.166Z,-4.42
2022-12-13T23:24:47.652Z,-4.48
2022-12-13T23:27:14.256Z,-4.16
2022-12-13T23:29:40.751Z,-4.22
2022-12-13T23:32:07.212Z,-4.38
2022-12-13T23:34:33.733Z,-4.31
2022-12-13T23:37:00.154Z,-4.28
2022-12-13T23:39:26.710Z,-4.14
2022-12-13T23:41:53.133Z,-4.43
2022-12-13T23:44:27.810Z,-4.28
2022-12-13T23:46:55.268Z,-4.24
2022-12-13T23:49:21.704Z,-4.13
2022-12-13T23:51:48.142Z,-4.31
2022-12-13T23:54:17.645Z,-4.34
2022-12-13T23:56:44.086Z,-4.38
2022-12-13T23:59:11.044Z,-4.32
